This is the latest recevied weather packets stored in our database for station/object KF0RZX-13. If no packets are shown the sender has not sent any weather packets the latest 10 day(s).
| Time | Temp. | Humidity | Pressure | Rain* | Wind** | Luminosity | Snow |
|---|---|---|---|---|---|---|---|
| 1787610726 | 32.78° C | 20% | 1021 hPa | 0 mm | - | - | - |
| 1787608925 | 32.78° C | 20% | 1021 hPa | 0 mm | - | - | - |
| 1787607116 | 32.78° C | 20% | 1021 hPa | 0 mm | - | - | - |
| 1787605313 | 33.89° C | 19% | 1021.3 hPa | 0 mm | - | - | - |
| 1787603506 | 35° C | 18% | 1021.7 hPa | 0 mm | - | - | - |
| 1787601702 | 33.89° C | 19% | 1021.7 hPa | 0 mm | - | - | - |
| 1787599897 | 33.89° C | 18% | 1021.7 hPa | 0 mm | - | - | - |
| 1787598092 | 33.89° C | 18% | 1021.7 hPa | 0 mm | - | - | - |
| 1787596267 | 32.78° C | 20% | 1021.7 hPa | 0 mm | - | - | - |
| 1787594462 | 32.78° C | 21% | 1021.7 hPa | 0 mm | - | - | - |
| 1787592656 | 32.22° C | 23% | 1022 hPa | 0 mm | - | - | - |
| 1787590852 | 32.22° C | 21% | 1022.4 hPa | - | - | - | - |
| 1787589026 | 31.11° C | 22% | 1022.4 hPa | 0 mm | - | - | - |
| 1787587222 | 30° C | 25% | 1022 hPa | 0 mm | - | - | - |
| 1787585413 | 28.89° C | 27% | 1021.7 hPa | 0 mm | - | - | - |
| 1787583609 | 27.78° C | 28% | 1021.7 hPa | 0 mm | - | - | - |
| 1787581796 | 25° C | 34% | 1021.3 hPa | 0 mm | - | - | - |
| 1787579991 | 22.22° C | 41% | 1021.3 hPa | 0 mm | - | - | - |
| 1787578188 | 21.11° C | 43% | 1021 hPa | 0 mm | - | - | - |
| 1787576381 | 20° C | 46% | 1020.3 hPa | 0 mm | - | - | - |
| 1787574578 | 20° C | 46% | 1020 hPa | 0 mm | - | - | - |
| 1787572756 | 20° C | 49% | 1019.3 hPa | 0 mm | - | - | - |
| 1787570951 | 20° C | 49% | 1019.3 hPa | 0 mm | - | - | - |
| 1787569147 | 21.11° C | 49% | 1019.3 hPa | 0 mm | - | - | - |
| 1787567343 | 21.11° C | 53% | 1019.3 hPa | 0 mm | - | - | - |
* Rain latest hour (hover to see other rain measurements)
** Current wind speed in m/s (hover to see current wind gust speed)